Time,TemperatureF,DewpointF,PressureIn,WindDirection,WindDirectionDegrees,WindSpeedMPH,WindSpeedGustMPH,Humidity,HourlyPrecipIn,Conditions,Clouds,dailyrainin,SoftwareType,DateUTC
2013-01-16 00:00:00,34.7,32.1,30.10,ENE,72,0.0,1.0,90,0.00,,,0.14,Wunderground v.1.15,2013-01-16 05:00:00,
2013-01-16 00:01:00,34.7,32.1,30.10,ENE,72,0.0,0.0,90,0.05,,,0.01,Wunderground v.1.15,2013-01-16 05:01:00,
2013-01-16 00:03:00,34.7,32.1,30.10,ENE,72,0.0,0.0,90,0.05,,,0.01,Wunderground v.1.15,2013-01-16 05:03:00,
2013-01-16 00:04:00,34.7,32.1,30.10,East,98,1.0,1.0,90,0.05,,,0.01,Wunderground v.1.15,2013-01-16 05:04:00,
2013-01-16 00:09:00,34.5,31.9,30.10,NE,42,0.0,2.0,90,0.05,,,0.01,Wunderground v.1.15,2013-01-16 05:09:00,
2013-01-16 00:15:00,34.5,32.1,30.10,NE,49,2.0,2.0,91,0.06,,,0.02,Wunderground v.1.15,2013-01-16 05:15:00,
2013-01-16 00:20:00,34.3,31.9,30.10,NE,56,0.0,1.0,91,0.09,,,0.03,Wunderground v.1.15,2013-01-16 05:20:00,
2013-01-16 00:26:00,34.3,31.9,30.10,East,84,1.0,2.0,91,0.09,,,0.04,Wunderground v.1.15,2013-01-16 05:26:00,
2013-01-16 00:31:00,34.2,32.1,30.10,ENE,70,2.0,2.0,92,0.09,,,0.05,Wunderground v.1.15,2013-01-16 05:31:00,
2013-01-16 00:37:00,34.1,32.0,30.10,NE,51,0.0,2.0,92,0.09,,,0.06,Wunderground v.1.15,2013-01-16 05:37:00,
2013-01-16 00:42:00,34.1,32.0,30.10,NE,41,0.0,1.0,92,0.12,,,0.07,Wunderground v.1.15,2013-01-16 05:42:00,
2013-01-16 00:48:00,34.0,31.9,30.10,NNE,27,1.0,3.0,92,0.11,,,0.08,Wunderground v.1.15,2013-01-16 05:48:00,
2013-01-16 00:54:00,33.9,32.1,30.10,ENE,69,1.0,2.0,93,0.09,,,0.08,Wunderground v.1.15,2013-01-16 05:54:00,
2013-01-16 00:59:00,33.8,32.0,30.09,East,82,1.0,3.0,93,0.08,,,0.09,Wunderground v.1.15,2013-01-16 05:59:00,
2013-01-16 01:05:00,33.7,31.9,30.09,ENE,72,2.0,3.0,93,0.09,,,0.10,Wunderground v.1.15,2013-01-16 06:05:00,
2013-01-16 01:10:00,33.7,31.9,30.08,ESE,108,2.0,2.0,93,0.09,,,0.11,Wunderground v.1.15,2013-01-16 06:10:00,
2013-01-16 01:16:00,33.6,31.8,30.07,ENE,65,1.0,2.0,93,0.10,,,0.12,Wunderground v.1.15,2013-01-16 06:16:00,
2013-01-16 01:22:00,33.5,31.7,30.07,East,81,1.0,3.0,93,0.08,,,0.12,Wunderground v.1.15,2013-01-16 06:22:00,
2013-01-16 01:27:00,33.5,32.0,30.08,East,101,1.0,3.0,94,0.08,,,0.13,Wunderground v.1.15,2013-01-16 06:27:00,
2013-01-16 01:33:00,33.4,31.6,30.08,East,88,2.0,6.0,93,0.06,,,0.14,Wunderground v.1.15,2013-01-16 06:33:00,
2013-01-16 01:39:00,33.3,31.5,30.07,ESE,110,6.0,6.0,93,0.06,,,0.14,Wunderground v.1.15,2013-01-16 06:39:00,
2013-01-16 01:45:00,33.2,31.4,30.07,ENE,63,3.0,5.0,93,0.06,,,0.15,Wunderground v.1.15,2013-01-16 06:45:00,
2013-01-16 01:51:00,33.1,31.3,30.07,ENE,72,1.0,2.0,93,0.06,,,0.15,Wunderground v.1.15,2013-01-16 06:51:00,
2013-01-16 01:56:00,33.1,31.3,30.07,ENE,67,3.0,5.0,93,0.05,,,0.16,Wunderground v.1.15,2013-01-16 06:56:00,
2013-01-16 02:01:00,33.1,31.6,30.07,ENE,75,2.0,2.0,94,0.05,,,0.16,Wunderground v.1.15,2013-01-16 07:01:00,
2013-01-16 02:06:00,33.1,31.6,30.07,East,84,5.0,5.0,94,0.05,,,0.16,Wunderground v.1.15,2013-01-16 07:06:00,
2013-01-16 02:11:00,32.9,31.4,30.07,NE,44,1.0,5.0,94,0.04,,,0.17,Wunderground v.1.15,2013-01-16 07:11:00,
2013-01-16 02:16:00,32.9,31.4,30.06,NNE,22,3.0,8.0,94,0.04,,,0.17,Wunderground v.1.15,2013-01-16 07:16:00,
2013-01-16 02:21:00,32.8,31.3,30.06,ENE,68,2.0,8.0,94,0.06,,,0.18,Wunderground v.1.15,2013-01-16 07:21:00,
2013-01-16 02:26:00,32.7,31.2,30.06,East,94,4.0,8.0,94,0.08,,,0.18,Wunderground v.1.15,2013-01-16 07:26:00,
2013-01-16 02:31:00,32.7,31.2,30.06,ENE,65,4.0,5.0,94,0.13,,,0.20,Wunderground v.1.15,2013-01-16 07:31:00,
2013-01-16 02:36:00,32.6,31.1,30.07,East,80,2.0,6.0,94,0.11,,,0.20,Wunderground v.1.15,2013-01-16 07:36:00,
2013-01-16 02:41:00,32.6,31.1,30.07,East,92,1.0,3.0,94,0.10,,,0.21,Wunderground v.1.15,2013-01-16 07:41:00,
2013-01-16 02:46:00,32.6,31.1,30.06,East,91,3.0,6.0,94,0.11,,,0.22,Wunderground v.1.15,2013-01-16 07:46:00,
2013-01-16 02:51:00,32.5,31.2,30.05,SE,129,2.0,4.0,95,0.11,,,0.23,Wunderground v.1.15,2013-01-16 07:51:00,
2013-01-16 02:56:00,32.5,31.2,30.04,ENE,75,3.0,7.0,95,0.13,,,0.24,Wunderground v.1.15,2013-01-16 07:56:00,
2013-01-16 03:01:00,32.5,31.2,30.04,East,91,1.0,10.0,95,0.12,,,0.25,Wunderground v.1.15,2013-01-16 08:01:00,
2013-01-16 03:06:00,32.5,31.2,30.04,ENE,58,2.0,10.0,95,0.11,,,0.26,Wunderground v.1.15,2013-01-16 08:06:00,
2013-01-16 03:11:00,32.4,31.1,30.02,East,84,4.0,6.0,95,0.14,,,0.28,Wunderground v.1.15,2013-01-16 08:11:00,
2013-01-16 03:16:00,32.4,31.1,30.02,ESE,107,4.0,7.0,95,0.13,,,0.29,Wunderground v.1.15,2013-01-16 08:16:00,
2013-01-16 03:21:00,32.4,31.1,30.03,ENE,68,1.0,3.0,95,0.11,,,0.29,Wunderground v.1.15,2013-01-16 08:21:00,
2013-01-16 03:26:00,32.4,31.1,30.02,SE,129,2.0,5.0,95,0.13,,,0.31,Wunderground v.1.15,2013-01-16 08:26:00,
2013-01-16 03:31:00,32.3,31.0,30.02,East,79,2.0,5.0,95,0.14,,,0.32,Wunderground v.1.15,2013-01-16 08:31:00,
2013-01-16 03:36:00,32.3,31.3,30.01,ENE,75,2.0,5.0,96,0.16,,,0.33,Wunderground v.1.15,2013-01-16 08:36:00,
2013-01-16 03:41:00,32.3,31.0,30.02,NE,41,3.0,4.0,95,0.24,,,0.35,Wunderground v.1.15,2013-01-16 08:41:00,
2013-01-16 03:46:00,32.3,31.3,30.02,NE,56,2.0,8.0,96,0.22,,,0.37,Wunderground v.1.15,2013-01-16 08:46:00,
2013-01-16 03:51:00,32.3,31.3,30.02,East,98,1.0,3.0,96,0.18,,,0.38,Wunderground v.1.15,2013-01-16 08:51:00,
2013-01-16 03:56:00,32.3,31.3,30.01,East,92,2.0,4.0,96,0.16,,,0.39,Wunderground v.1.15,2013-01-16 08:56:00,
2013-01-16 04:01:00,32.3,31.3,30.01,East,87,1.0,3.0,96,0.09,,,0.40,Wunderground v.1.15,2013-01-16 09:01:00,
2013-01-16 04:06:00,32.3,31.3,30.01,NE,49,1.0,4.0,96,0.14,,,0.41,Wunderground v.1.15,2013-01-16 09:06:00,
2013-01-16 04:11:00,32.3,31.3,30.01,SE,141,3.0,3.0,96,0.15,,,0.42,Wunderground v.1.15,2013-01-16 09:11:00,
2013-01-16 04:16:00,32.3,31.3,30.00,ENE,57,2.0,4.0,96,0.15,,,0.43,Wunderground v.1.15,2013-01-16 09:16:00,
2013-01-16 04:21:00,32.3,31.3,30.00,ESE,121,0.0,2.0,96,0.15,,,0.45,Wunderground v.1.15,2013-01-16 09:21:00,
2013-01-16 04:26:00,32.2,31.2,30.00,ENE,70,1.0,5.0,96,0.10,,,0.45,Wunderground v.1.15,2013-01-16 09:26:00,
2013-01-16 04:31:00,32.3,31.3,30.00,East,93,1.0,2.0,96,0.06,,,0.46,Wunderground v.1.15,2013-01-16 09:31:00,
2013-01-16 04:36:00,32.2,31.2,30.01,SE,128,1.0,4.0,96,0.06,,,0.46,Wunderground v.1.15,2013-01-16 09:36:00,
2013-01-16 04:41:00,32.2,31.2,30.01,NE,37,0.0,2.0,96,0.06,,,0.46,Wunderground v.1.15,2013-01-16 09:41:00,
2013-01-16 04:46:00,32.2,31.2,30.01,East,82,1.0,3.0,96,0.04,,,0.46,Wunderground v.1.15,2013-01-16 09:46:00,
2013-01-16 04:51:00,32.2,31.2,30.01,ESE,108,1.0,3.0,96,0.00,,,0.46,Wunderground v.1.15,2013-01-16 09:51:00,
2013-01-16 04:56:00,32.2,31.2,30.00,ESE,103,1.0,4.0,96,0.00,,,0.46,Wunderground v.1.15,2013-01-16 09:56:00,
2013-01-16 05:01:00,32.2,31.2,30.00,East,86,2.0,2.0,96,0.00,,,0.47,Wunderground v.1.15,2013-01-16 10:01:00,
2013-01-16 05:06:00,32.2,31.2,29.99,ENE,63,0.0,3.0,96,0.08,,,0.48,Wunderground v.1.15,2013-01-16 10:06:00,
2013-01-16 05:11:00,32.2,31.2,29.99,East,98,2.0,2.0,96,0.08,,,0.48,Wunderground v.1.15,2013-01-16 10:11:00,
2013-01-16 05:16:00,32.3,31.3,29.99,East,88,1.0,3.0,96,0.07,,,0.49,Wunderground v.1.15,2013-01-16 10:16:00,
2013-01-16 05:21:00,32.3,31.3,29.98,East,88,1.0,3.0,96,0.07,,,0.49,Wunderground v.1.15,2013-01-16 10:21:00,
2013-01-16 05:26:00,32.3,31.3,29.98,East,96,1.0,3.0,96,0.05,,,0.49,Wunderground v.1.15,2013-01-16 10:26:00,
2013-01-16 05:31:00,32.3,31.3,29.98,ENE,75,2.0,3.0,96,0.00,,,0.50,Wunderground v.1.15,2013-01-16 10:31:00,
2013-01-16 05:36:00,32.3,31.3,29.98,SE,127,0.0,3.0,96,0.00,,,0.50,Wunderground v.1.15,2013-01-16 10:36:00,
2013-01-16 05:41:00,32.3,31.5,29.98,East,100,1.0,2.0,97,0.00,,,0.50,Wunderground v.1.15,2013-01-16 10:41:00,
2013-01-16 05:46:00,32.3,31.5,29.98,ESE,110,1.0,3.0,97,0.06,,,0.51,Wunderground v.1.15,2013-01-16 10:46:00,
2013-01-16 05:51:00,32.4,31.6,29.97,NE,40,2.0,2.0,97,0.07,,,0.52,Wunderground v.1.15,2013-01-16 10:51:00,
2013-01-16 05:56:00,32.3,31.5,29.97,ENE,59,0.0,4.0,97,0.07,,,0.52,Wunderground v.1.15,2013-01-16 10:56:00,
2013-01-16 06:01:00,32.3,31.5,29.95,East,80,1.0,2.0,97,0.07,,,0.53,Wunderground v.1.15,2013-01-16 11:01:00,
2013-01-16 06:06:00,32.3,31.5,29.95,ESE,108,1.0,2.0,97,0.08,,,0.54,Wunderground v.1.15,2013-01-16 11:06:00,
2013-01-16 06:11:00,32.4,31.6,29.96,NNW,335,1.0,2.0,97,0.08,,,0.54,Wunderground v.1.15,2013-01-16 11:11:00,
2013-01-16 06:16:00,32.4,31.6,29.96,NNW,333,1.0,2.0,97,0.06,,,0.54,Wunderground v.1.15,2013-01-16 11:16:00,
2013-01-16 06:21:00,32.4,31.6,29.95,ENE,73,1.0,2.0,97,0.05,,,0.55,Wunderground v.1.15,2013-01-16 11:21:00,
2013-01-16 06:26:00,32.4,31.6,29.95,ESE,102,2.0,3.0,97,0.05,,,0.55,Wunderground v.1.15,2013-01-16 11:26:00,
2013-01-16 06:31:00,32.4,31.6,29.95,ENE,75,1.0,2.0,97,0.05,,,0.56,Wunderground v.1.15,2013-01-16 11:31:00,
2013-01-16 06:36:00,32.4,31.6,29.95,East,95,2.0,2.0,97,0.05,,,0.56,Wunderground v.1.15,2013-01-16 11:36:00,
2013-01-16 06:41:00,32.4,31.6,29.94,NE,47,0.0,1.0,97,0.05,,,0.56,Wunderground v.1.15,2013-01-16 11:41:00,
2013-01-16 06:46:00,32.4,31.6,29.95,ENE,77,1.0,2.0,97,0.04,,,0.56,Wunderground v.1.15,2013-01-16 11:46:00,
2013-01-16 06:51:00,32.4,31.6,29.95,NE,56,2.0,3.0,97,0.04,,,0.57,Wunderground v.1.15,2013-01-16 11:51:00,
2013-01-16 06:56:00,32.4,31.6,29.95,ENE,59,1.0,3.0,97,0.04,,,0.57,Wunderground v.1.15,2013-01-16 11:56:00,
2013-01-16 07:01:00,32.4,31.6,29.96,North,4,0.0,2.0,97,0.04,,,0.57,Wunderground v.1.15,2013-01-16 12:01:00,
2013-01-16 07:06:00,32.4,31.6,29.95,NNE,28,2.0,2.0,97,0.00,,,0.57,Wunderground v.1.15,2013-01-16 12:06:00,
2013-01-16 07:12:00,32.4,31.6,29.95,ENE,63,1.0,1.0,97,0.00,,,0.58,Wunderground v.1.15,2013-01-16 12:12:00,
2013-01-16 07:17:00,32.5,31.7,29.95,ENE,74,0.0,2.0,97,0.00,,,0.58,Wunderground v.1.15,2013-01-16 12:17:00,
2013-01-16 07:22:00,32.5,31.7,29.95,East,94,0.0,1.0,97,0.00,,,0.58,Wunderground v.1.15,2013-01-16 12:22:00,
2013-01-16 07:27:00,32.5,31.7,29.95,NNW,347,1.0,3.0,97,0.00,,,0.58,Wunderground v.1.15,2013-01-16 12:27:00,
2013-01-16 07:32:00,32.4,31.6,29.94,East,90,1.0,2.0,97,0.00,,,0.59,Wunderground v.1.15,2013-01-16 12:32:00,
2013-01-16 07:37:00,32.4,31.6,29.94,NE,43,0.0,2.0,97,0.00,,,0.59,Wunderground v.1.15,2013-01-16 12:37:00,
2013-01-16 07:42:00,32.4,31.6,29.94,NE,46,1.0,2.0,97,0.00,,,0.59,Wunderground v.1.15,2013-01-16 12:42:00,
2013-01-16 07:47:00,32.5,31.7,29.93,NNE,33,1.0,2.0,97,0.05,,,0.60,Wunderground v.1.15,2013-01-16 12:47:00,
2013-01-16 07:52:00,32.4,31.6,29.93,East,86,1.0,2.0,97,0.05,,,0.60,Wunderground v.1.15,2013-01-16 12:52:00,
2013-01-16 07:57:00,32.4,31.6,29.92,East,86,0.0,2.0,97,0.04,,,0.60,Wunderground v.1.15,2013-01-16 12:57:00,
2013-01-16 08:02:00,32.4,31.6,29.92,ENE,74,0.0,3.0,97,0.04,,,0.61,Wunderground v.1.15,2013-01-16 13:02:00,
2013-01-16 08:07:00,32.5,31.7,29.92,NE,47,1.0,3.0,97,0.04,,,0.61,Wunderground v.1.15,2013-01-16 13:07:00,
2013-01-16 08:12:00,32.6,31.8,29.92,NNE,28,2.0,3.0,97,0.04,,,0.61,Wunderground v.1.15,2013-01-16 13:12:00,
2013-01-16 08:17:00,32.6,31.8,29.92,ENE,74,0.0,3.0,97,0.00,,,0.61,Wunderground v.1.15,2013-01-16 13:17:00,
2013-01-16 08:22:00,32.6,31.8,29.92,NE,42,1.0,3.0,97,0.00,,,0.61,Wunderground v.1.15,2013-01-16 13:22:00,
2013-01-16 08:27:00,32.6,31.8,29.92,ENE,71,0.0,3.0,97,0.00,,,0.61,Wunderground v.1.15,2013-01-16 13:27:00,
2013-01-16 08:32:00,32.6,31.8,29.91,North,9,1.0,3.0,97,0.00,,,0.61,Wunderground v.1.15,2013-01-16 13:32:00,
2013-01-16 08:37:00,32.6,31.8,29.90,East,92,0.0,3.0,97,0.00,,,0.61,Wunderground v.1.15,2013-01-16 13:37:00,
2013-01-16 08:42:00,32.7,31.9,29.90,East,92,0.0,2.0,97,0.00,,,0.61,Wunderground v.1.15,2013-01-16 13:42:00,
2013-01-16 08:47:00,32.6,31.8,29.89,SE,129,1.0,3.0,97,0.00,,,0.61,Wunderground v.1.15,2013-01-16 13:47:00,
2013-01-16 08:52:00,32.6,31.8,29.86,South,169,1.0,5.0,97,0.00,,,0.61,Wunderground v.1.15,2013-01-16 13:52:00,
2013-01-16 08:57:00,32.7,31.9,29.87,ENE,68,1.0,5.0,97,0.00,,,0.61,Wunderground v.1.15,2013-01-16 13:57:00,
2013-01-16 09:02:00,32.8,32.0,29.86,East,89,3.0,3.0,97,0.00,,,0.61,Wunderground v.1.15,2013-01-16 14:02:00,
2013-01-16 09:07:00,32.9,32.1,29.85,ENE,78,1.0,3.0,97,0.00,,,0.62,Wunderground v.1.15,2013-01-16 14:07:00,
2013-01-16 09:12:00,32.9,32.1,29.85,ESE,114,2.0,3.0,97,0.00,,,0.62,Wunderground v.1.15,2013-01-16 14:12:00,
2013-01-16 09:17:00,33.0,32.5,29.86,North,359,2.0,4.0,98,0.00,,,0.62,Wunderground v.1.15,2013-01-16 14:17:00,
2013-01-16 09:22:00,33.1,32.6,29.87,NNE,22,0.0,3.0,98,0.00,,,0.62,Wunderground v.1.15,2013-01-16 14:22:00,
2013-01-16 09:27:00,33.1,32.6,29.87,NE,49,1.0,3.0,98,0.00,,,0.62,Wunderground v.1.15,2013-01-16 14:27:00,
2013-01-16 09:32:00,33.0,32.5,29.88,NNW,345,1.0,3.0,98,0.00,,,0.62,Wunderground v.1.15,2013-01-16 14:32:00,
2013-01-16 09:37:00,33.1,32.3,29.87,NNW,338,1.0,3.0,97,0.00,,,0.62,Wunderground v.1.15,2013-01-16 14:37:00,
2013-01-16 09:42:00,33.0,32.2,29.87,NNE,23,0.0,1.0,97,0.00,,,0.63,Wunderground v.1.15,2013-01-16 14:42:00,
2013-01-16 09:47:00,33.1,32.3,29.86,ENE,63,1.0,2.0,97,0.00,,,0.63,Wunderground v.1.15,2013-01-16 14:47:00,
2013-01-16 09:52:00,33.0,32.2,29.87,NNE,20,0.0,2.0,97,0.00,,,0.63,Wunderground v.1.15,2013-01-16 14:52:00,
2013-01-16 09:57:00,33.0,32.2,29.86,NNE,20,0.0,2.0,97,0.00,,,0.63,Wunderground v.1.15,2013-01-16 14:57:00,
2013-01-16 10:02:00,33.1,32.6,29.88,NNE,18,1.0,1.0,98,0.00,,,0.63,Wunderground v.1.15,2013-01-16 15:02:00,
2013-01-16 10:07:00,33.1,32.6,29.89,North,5,1.0,1.0,98,0.00,,,0.63,Wunderground v.1.15,2013-01-16 15:07:00,
2013-01-16 10:12:00,33.2,32.7,29.89,North,354,3.0,3.0,98,0.00,,,0.63,Wunderground v.1.15,2013-01-16 15:12:00,
2013-01-16 10:17:00,33.1,32.3,29.89,NNW,339,1.0,4.0,97,0.00,,,0.63,Wunderground v.1.15,2013-01-16 15:17:00,
2013-01-16 10:22:00,33.1,32.3,29.89,North,359,1.0,3.0,97,0.00,,,0.63,Wunderground v.1.15,2013-01-16 15:22:00,
2013-01-16 10:27:00,33.1,32.3,29.88,North,6,0.0,3.0,97,0.00,,,0.64,Wunderground v.1.15,2013-01-16 15:27:00,
2013-01-16 10:32:00,33.2,32.7,29.88,North,6,0.0,1.0,98,0.00,,,0.64,Wunderground v.1.15,2013-01-16 15:32:00,
2013-01-16 10:37:00,33.2,32.7,29.88,North,359,1.0,2.0,98,0.00,,,0.64,Wunderground v.1.15,2013-01-16 15:37:00,
2013-01-16 10:42:00,33.2,32.7,29.88,North,356,2.0,2.0,98,0.00,,,0.64,Wunderground v.1.15,2013-01-16 15:42:00,
2013-01-16 10:47:00,33.3,32.8,29.88,North,349,2.0,3.0,98,0.00,,,0.65,Wunderground v.1.15,2013-01-16 15:47:00,
2013-01-16 10:52:00,33.3,32.8,29.87,NNE,13,2.0,2.0,98,0.00,,,0.65,Wunderground v.1.15,2013-01-16 15:52:00,
2013-01-16 10:57:00,33.3,32.8,29.86,North,10,0.0,2.0,98,0.00,,,0.65,Wunderground v.1.15,2013-01-16 15:57:00,
2013-01-16 11:02:00,33.5,33.0,29.86,North,352,1.0,2.0,98,0.00,,,0.65,Wunderground v.1.15,2013-01-16 16:02:00,
2013-01-16 11:07:00,33.4,32.9,29.85,NNE,29,4.0,4.0,98,0.00,,,0.66,Wunderground v.1.15,2013-01-16 16:07:00,
2013-01-16 11:12:00,33.2,32.4,29.85,NNE,12,1.0,4.0,97,0.00,,,0.66,Wunderground v.1.15,2013-01-16 16:12:00,
2013-01-16 11:17:00,33.2,32.4,29.86,NNW,327,2.0,4.0,97,0.00,,,0.66,Wunderground v.1.15,2013-01-16 16:17:00,
2013-01-16 11:22:00,33.1,32.3,29.85,North,356,1.0,4.0,97,0.04,,,0.67,Wunderground v.1.15,2013-01-16 16:22:00,
2013-01-16 11:27:00,33.2,32.4,29.84,NNE,18,1.0,4.0,97,0.04,,,0.67,Wunderground v.1.15,2013-01-16 16:27:00,
2013-01-16 11:32:00,33.3,32.8,29.84,NNW,339,2.0,2.0,98,0.04,,,0.67,Wunderground v.1.15,2013-01-16 16:32:00,
2013-01-16 11:37:00,33.2,32.4,29.85,North,9,1.0,6.0,97,0.00,,,0.67,Wunderground v.1.15,2013-01-16 16:37:00,
2013-01-16 11:42:00,33.3,32.5,29.84,North,352,3.0,3.0,97,0.00,,,0.67,Wunderground v.1.15,2013-01-16 16:42:00,
2013-01-16 11:48:00,33.2,32.4,29.84,NNW,340,2.0,4.0,97,0.00,,,0.67,Wunderground v.1.15,2013-01-16 16:48:00,
2013-01-16 11:53:00,33.2,32.4,29.83,NNE,15,1.0,3.0,97,0.00,,,0.68,Wunderground v.1.15,2013-01-16 16:53:00,
2013-01-16 11:58:00,33.1,32.3,29.83,NNE,13,3.0,3.0,97,0.00,,,0.68,Wunderground v.1.15,2013-01-16 16:58:00,
2013-01-16 12:03:00,33.2,32.4,29.83,NNW,344,3.0,4.0,97,0.00,,,0.68,Wunderground v.1.15,2013-01-16 17:03:00,
2013-01-16 12:08:00,33.2,32.4,29.82,NNW,330,3.0,5.0,97,0.00,,,0.68,Wunderground v.1.15,2013-01-16 17:08:00,
2013-01-16 12:13:00,33.2,32.4,29.82,NW,326,1.0,2.0,97,0.00,,,0.68,Wunderground v.1.15,2013-01-16 17:13:00,
2013-01-16 12:18:00,33.2,32.4,29.79,East,79,0.0,2.0,97,0.00,,,0.68,Wunderground v.1.15,2013-01-16 17:18:00,
2013-01-16 12:23:00,33.1,32.3,29.79,East,79,0.0,0.0,97,0.00,,,0.68,Wunderground v.1.15,2013-01-16 17:23:00,
2013-01-16 12:28:00,33.2,32.4,29.79,East,79,0.0,0.0,97,0.00,,,0.69,Wunderground v.1.15,2013-01-16 17:28:00,
2013-01-16 12:33:00,33.3,32.5,29.79,SSE,163,0.0,1.0,97,0.00,,,0.69,Wunderground v.1.15,2013-01-16 17:33:00,
2013-01-16 12:38:00,33.3,32.5,29.81,North,356,2.0,4.0,97,0.00,,,0.69,Wunderground v.1.15,2013-01-16 17:38:00,
2013-01-16 12:43:00,33.5,32.7,29.79,NNW,330,1.0,1.0,97,0.00,,,0.69,Wunderground v.1.15,2013-01-16 17:43:00,
2013-01-16 12:48:00,33.5,32.7,29.77,ESE,120,1.0,2.0,97,0.00,,,0.69,Wunderground v.1.15,2013-01-16 17:48:00,
2013-01-16 12:53:00,33.3,32.5,29.75,ESE,123,1.0,2.0,97,0.00,,,0.69,Wunderground v.1.15,2013-01-16 17:53:00,
2013-01-16 12:58:00,33.3,32.5,29.72,SSE,165,2.0,3.0,97,0.00,,,0.69,Wunderground v.1.15,2013-01-16 17:58:00,
2013-01-16 13:03:00,33.4,32.6,29.73,SE,137,0.0,2.0,97,0.00,,,0.69,Wunderground v.1.15,2013-01-16 18:03:00,
2013-01-16 13:08:00,33.4,32.6,29.72,South,169,1.0,3.0,97,0.00,,,0.69,Wunderground v.1.15,2013-01-16 18:08:00,
2013-01-16 13:13:00,33.5,32.7,29.70,SW,228,1.0,4.0,97,0.00,,,0.69,Wunderground v.1.15,2013-01-16 18:13:00,
2013-01-16 13:18:00,33.6,32.8,29.70,ESE,118,1.0,4.0,97,0.00,,,0.69,Wunderground v.1.15,2013-01-16 18:18:00,
2013-01-16 13:23:00,33.7,33.2,29.71,North,6,2.0,2.0,98,0.00,,,0.70,Wunderground v.1.15,2013-01-16 18:23:00,
2013-01-16 13:28:00,33.7,33.2,29.75,NNW,346,3.0,5.0,98,0.00,,,0.70,Wunderground v.1.15,2013-01-16 18:28:00,
2013-01-16 13:33:00,33.8,33.3,29.75,NNW,332,4.0,5.0,98,0.00,,,0.70,Wunderground v.1.15,2013-01-16 18:33:00,
2013-01-16 13:38:00,33.8,33.3,29.74,NNE,15,5.0,6.0,98,0.00,,,0.70,Wunderground v.1.15,2013-01-16 18:38:00,
2013-01-16 13:43:00,33.7,32.9,29.73,NNE,29,2.0,3.0,97,0.00,,,0.70,Wunderground v.1.15,2013-01-16 18:43:00,
2013-01-16 13:48:00,33.7,32.9,29.72,NE,34,0.0,3.0,97,0.00,,,0.70,Wunderground v.1.15,2013-01-16 18:48:00,
2013-01-16 13:53:00,33.6,32.8,29.74,NNW,343,6.0,7.0,97,0.00,,,0.70,Wunderground v.1.15,2013-01-16 18:53:00,
2013-01-16 13:58:00,33.7,33.2,29.78,NE,41,4.0,12.0,98,0.00,,,0.70,Wunderground v.1.15,2013-01-16 18:58:00,
2013-01-16 14:03:00,33.6,33.1,29.78,NNE,22,5.0,8.0,98,0.00,,,0.70,Wunderground v.1.15,2013-01-16 19:03:00,
2013-01-16 14:08:00,33.7,33.2,29.78,NNW,327,4.0,10.0,98,0.00,,,0.70,Wunderground v.1.15,2013-01-16 19:08:00,
2013-01-16 14:13:00,33.6,33.1,29.80,NNE,18,5.0,7.0,98,0.00,,,0.70,Wunderground v.1.15,2013-01-16 19:13:00,
2013-01-16 14:18:00,33.7,33.2,29.80,NNW,342,4.0,9.0,98,0.00,,,0.70,Wunderground v.1.15,2013-01-16 19:18:00,
2013-01-16 14:23:00,33.7,33.2,29.80,NE,54,3.0,6.0,98,0.00,,,0.70,Wunderground v.1.15,2013-01-16 19:23:00,
2013-01-16 14:28:00,33.7,33.2,29.79,WNW,302,2.0,6.0,98,0.00,,,0.70,Wunderground v.1.15,2013-01-16 19:28:00,
2013-01-16 14:33:00,33.8,33.3,29.80,NNW,343,3.0,4.0,98,0.00,,,0.70,Wunderground v.1.15,2013-01-16 19:33:00,
2013-01-16 14:38:00,33.8,33.3,29.78,ESE,111,0.0,4.0,98,0.00,,,0.70,Wunderground v.1.15,2013-01-16 19:38:00,
2013-01-16 14:43:00,33.9,33.4,29.78,ESE,102,0.0,1.0,98,0.00,,,0.70,Wunderground v.1.15,2013-01-16 19:43:00,
2013-01-16 14:48:00,34.0,33.5,29.76,ESE,110,0.0,1.0,98,0.00,,,0.70,Wunderground v.1.15,2013-01-16 19:48:00,
2013-01-16 14:53:00,34.0,33.5,29.78,North,354,1.0,3.0,98,0.00,,,0.70,Wunderground v.1.15,2013-01-16 19:53:00,
2013-01-16 14:58:00,34.1,33.6,29.77,North,356,0.0,3.0,98,0.00,,,0.70,Wunderground v.1.15,2013-01-16 19:58:00,
2013-01-16 15:03:00,34.2,33.7,29.76,North,356,0.0,1.0,98,0.00,,,0.71,Wunderground v.1.15,2013-01-16 20:03:00,
2013-01-16 15:08:00,34.2,33.7,29.78,NNW,327,2.0,3.0,98,0.00,,,0.71,Wunderground v.1.15,2013-01-16 20:08:00,
2013-01-16 15:13:00,34.3,33.8,29.77,East,85,1.0,2.0,98,0.00,,,0.71,Wunderground v.1.15,2013-01-16 20:13:00,
2013-01-16 15:18:00,34.3,33.8,29.78,NNE,18,1.0,2.0,98,0.00,,,0.71,Wunderground v.1.15,2013-01-16 20:18:00,
2013-01-16 15:23:00,34.3,33.8,29.77,NE,51,0.0,2.0,98,0.00,,,0.71,Wunderground v.1.15,2013-01-16 20:23:00,
2013-01-16 15:28:00,34.3,33.8,29.77,NNW,333,1.0,2.0,98,0.00,,,0.71,Wunderground v.1.15,2013-01-16 20:28:00,
2013-01-16 15:33:00,34.4,33.9,29.77,NNW,333,0.0,2.0,98,0.00,,,0.71,Wunderground v.1.15,2013-01-16 20:33:00,
2013-01-16 15:38:00,34.5,34.0,29.78,North,349,1.0,2.0,98,0.00,,,0.71,Wunderground v.1.15,2013-01-16 20:38:00,
2013-01-16 15:43:00,34.5,34.0,29.80,NNW,335,0.0,1.0,98,0.00,,,0.71,Wunderground v.1.15,2013-01-16 20:43:00,
2013-01-16 15:48:00,34.5,34.0,29.80,West,278,1.0,3.0,98,0.00,,,0.71,Wunderground v.1.15,2013-01-16 20:48:00,
2013-01-16 15:53:00,34.5,34.0,29.79,WNW,294,0.0,1.0,98,0.00,,,0.71,Wunderground v.1.15,2013-01-16 20:53:00,
2013-01-16 15:58:00,34.5,34.0,29.78,WNW,294,0.0,1.0,98,0.00,,,0.71,Wunderground v.1.15,2013-01-16 20:58:00,
2013-01-16 16:03:00,34.4,33.9,29.78,WNW,283,1.0,1.0,98,0.00,,,0.71,Wunderground v.1.15,2013-01-16 21:03:00,
2013-01-16 16:08:00,34.5,34.0,29.78,West,273,2.0,3.0,98,0.00,,,0.71,Wunderground v.1.15,2013-01-16 21:08:00,
2013-01-16 16:13:00,34.6,34.1,29.78,West,281,1.0,2.0,98,0.00,,,0.71,Wunderground v.1.15,2013-01-16 21:13:00,
2013-01-16 16:18:00,34.6,34.1,29.80,NW,309,1.0,4.0,98,0.00,,,0.71,Wunderground v.1.15,2013-01-16 21:18:00,
2013-01-16 16:23:00,34.6,34.1,29.80,NW,316,1.0,3.0,98,0.00,,,0.71,Wunderground v.1.15,2013-01-16 21:23:00,
2013-01-16 16:28:00,34.7,34.2,29.81,WNW,286,4.0,5.0,98,0.00,,,0.71,Wunderground v.1.15,2013-01-16 21:28:00,
2013-01-16 16:33:00,34.6,34.1,29.79,West,274,3.0,3.0,98,0.00,,,0.71,Wunderground v.1.15,2013-01-16 21:33:00,
2013-01-16 16:38:00,34.6,34.1,29.79,West,269,1.0,4.0,98,0.00,,,0.71,Wunderground v.1.15,2013-01-16 21:38:00,
2013-01-16 16:43:00,34.6,33.8,29.79,West,280,2.0,4.0,97,0.00,,,0.71,Wunderground v.1.15,2013-01-16 21:43:00,
2013-01-16 16:48:00,34.6,33.8,29.80,WNW,284,2.0,4.0,97,0.00,,,0.71,Wunderground v.1.15,2013-01-16 21:48:00,
2013-01-16 16:53:00,34.6,33.8,29.80,WNW,285,3.0,5.0,97,0.00,,,0.71,Wunderground v.1.15,2013-01-16 21:53:00,
2013-01-16 16:58:00,34.6,33.8,29.80,West,276,2.0,5.0,97,0.00,,,0.71,Wunderground v.1.15,2013-01-16 21:58:00,
2013-01-16 17:03:00,34.6,33.8,29.79,WSW,242,2.0,4.0,97,0.00,,,0.72,Wunderground v.1.15,2013-01-16 22:03:00,
2013-01-16 17:08:00,34.5,33.7,29.80,WNW,302,1.0,6.0,97,0.00,,,0.72,Wunderground v.1.15,2013-01-16 22:08:00,
2013-01-16 17:13:00,34.5,33.7,29.80,West,260,2.0,3.0,97,0.00,,,0.72,Wunderground v.1.15,2013-01-16 22:13:00,
2013-01-16 17:18:00,34.6,33.8,29.80,West,281,2.0,3.0,97,0.00,,,0.72,Wunderground v.1.15,2013-01-16 22:18:00,
2013-01-16 17:23:00,34.7,33.9,29.81,WSW,242,3.0,6.0,97,0.00,,,0.72,Wunderground v.1.15,2013-01-16 22:23:00,
2013-01-16 17:28:00,34.7,33.9,29.80,West,264,3.0,7.0,97,0.00,,,0.72,Wunderground v.1.15,2013-01-16 22:28:00,
2013-01-16 17:33:00,34.8,34.0,29.80,West,276,1.0,6.0,97,0.00,,,0.72,Wunderground v.1.15,2013-01-16 22:33:00,
2013-01-16 17:38:00,34.8,34.0,29.81,WNW,286,3.0,6.0,97,0.00,,,0.72,Wunderground v.1.15,2013-01-16 22:38:00,
2013-01-16 17:43:00,34.8,34.0,29.81,WSW,238,1.0,5.0,97,0.00,,,0.72,Wunderground v.1.15,2013-01-16 22:43:00,
2013-01-16 17:48:00,34.8,34.0,29.80,West,273,4.0,6.0,97,0.00,,,0.72,Wunderground v.1.15,2013-01-16 22:48:00,
2013-01-16 17:53:00,34.7,33.9,29.80,WNW,288,1.0,6.0,97,0.00,,,0.72,Wunderground v.1.15,2013-01-16 22:53:00,
2013-01-16 17:58:00,34.8,34.0,29.80,WNW,293,3.0,6.0,97,0.00,,,0.72,Wunderground v.1.15,2013-01-16 22:58:00,
2013-01-16 18:03:00,34.8,34.0,29.80,West,274,4.0,5.0,97,0.00,,,0.72,Wunderground v.1.15,2013-01-16 23:03:00,
2013-01-16 18:08:00,34.7,33.9,29.80,WNW,288,3.0,8.0,97,0.00,,,0.72,Wunderground v.1.15,2013-01-16 23:08:00,
2013-01-16 18:13:00,34.7,33.9,29.80,NW,309,3.0,5.0,97,0.00,,,0.72,Wunderground v.1.15,2013-01-16 23:13:00,
2013-01-16 18:18:00,34.7,33.9,29.81,West,281,5.0,6.0,97,0.00,,,0.72,Wunderground v.1.15,2013-01-16 23:18:00,
2013-01-16 18:23:00,34.7,33.9,29.80,SW,221,2.0,6.0,97,0.00,,,0.72,Wunderground v.1.15,2013-01-16 23:23:00,
2013-01-16 18:28:00,34.7,33.9,29.79,West,276,5.0,9.0,97,0.00,,,0.72,Wunderground v.1.15,2013-01-16 23:28:00,
2013-01-16 18:33:00,34.8,34.0,29.80,WNW,295,3.0,7.0,97,0.00,,,0.72,Wunderground v.1.15,2013-01-16 23:33:00,
2013-01-16 18:38:00,34.8,34.0,29.79,WNW,284,4.0,7.0,97,0.00,,,0.72,Wunderground v.1.15,2013-01-16 23:38:00,
2013-01-16 18:43:00,34.8,34.0,29.79,West,266,1.0,4.0,97,0.00,,,0.72,Wunderground v.1.15,2013-01-16 23:43:00,
2013-01-16 18:48:00,34.9,34.1,29.79,WNW,295,1.0,5.0,97,0.00,,,0.72,Wunderground v.1.15,2013-01-16 23:48:00,
2013-01-16 18:53:00,34.9,34.1,29.79,West,280,3.0,3.0,97,0.00,,,0.72,Wunderground v.1.15,2013-01-16 23:53:00,
2013-01-16 18:58:00,35.0,34.2,29.80,West,270,1.0,6.0,97,0.00,,,0.72,Wunderground v.1.15,2013-01-16 23:58:00,
2013-01-16 19:03:00,35.0,34.2,29.81,West,269,2.0,5.0,97,0.00,,,0.72,Wunderground v.1.15,2013-01-17 00:03:00,
2013-01-16 19:08:00,35.1,34.3,29.82,NW,309,1.0,8.0,97,0.00,,,0.72,Wunderground v.1.15,2013-01-17 00:08:00,
2013-01-16 19:14:00,35.1,34.1,29.80,WSW,257,4.0,10.0,96,0.00,,,0.72,Wunderground v.1.15,2013-01-17 00:14:00,
2013-01-16 19:18:00,35.1,34.1,29.80,West,263,2.0,10.0,96,0.00,,,0.72,Wunderground v.1.15,2013-01-17 00:18:00,
2013-01-16 19:23:00,35.1,34.1,29.80,West,263,7.0,9.0,96,0.00,,,0.73,Wunderground v.1.15,2013-01-17 00:23:00,
2013-01-16 19:28:00,35.1,34.1,29.81,WNW,294,3.0,10.0,96,0.00,,,0.73,Wunderground v.1.15,2013-01-17 00:28:00,
2013-01-16 19:33:00,35.1,34.1,29.80,West,273,4.0,8.0,96,0.00,,,0.73,Wunderground v.1.15,2013-01-17 00:33:00,
2013-01-16 19:39:00,35.2,34.2,29.81,WNW,290,2.0,9.0,96,0.00,,,0.73,Wunderground v.1.15,2013-01-17 00:39:00,
2013-01-16 19:44:00,35.2,34.2,29.80,WNW,282,6.0,8.0,96,0.00,,,0.73,Wunderground v.1.15,2013-01-17 00:44:00,
2013-01-16 19:48:00,35.2,34.2,29.80,West,267,3.0,10.0,96,0.00,,,0.73,Wunderground v.1.15,2013-01-17 00:48:00,
2013-01-16 19:54:00,35.2,34.2,29.80,WNW,290,4.0,9.0,96,0.00,,,0.73,Wunderground v.1.15,2013-01-17 00:54:00,
2013-01-16 19:59:00,35.3,34.3,29.80,West,274,6.0,9.0,96,0.00,,,0.73,Wunderground v.1.15,2013-01-17 00:59:00,
2013-01-16 20:04:00,35.3,34.3,29.80,WNW,288,5.0,11.0,96,0.00,,,0.73,Wunderground v.1.15,2013-01-17 01:04:00,
2013-01-16 20:09:00,35.3,34.3,29.80,WNW,297,3.0,11.0,96,0.00,,,0.73,Wunderground v.1.15,2013-01-17 01:09:00,
2013-01-16 20:14:00,35.4,34.4,29.81,West,280,5.0,10.0,96,0.00,,,0.73,Wunderground v.1.15,2013-01-17 01:14:00,
2013-01-16 20:19:00,35.5,34.5,29.82,WNW,282,9.0,11.0,96,0.00,,,0.73,Wunderground v.1.15,2013-01-17 01:19:00,
2013-01-16 20:24:00,35.5,34.5,29.82,WNW,294,4.0,10.0,96,0.00,,,0.73,Wunderground v.1.15,2013-01-17 01:24:00,
2013-01-16 20:29:00,35.6,34.6,29.82,WNW,282,5.0,10.0,96,0.00,,,0.73,Wunderground v.1.15,2013-01-17 01:29:00,
2013-01-16 20:34:00,35.6,34.6,29.82,West,259,2.0,10.0,96,0.00,,,0.73,Wunderground v.1.15,2013-01-17 01:34:00,
2013-01-16 20:39:00,35.7,34.7,29.82,SSW,198,4.0,10.0,96,0.00,,,0.73,Wunderground v.1.15,2013-01-17 01:39:00,
2013-01-16 20:44:00,35.7,34.7,29.82,WNW,285,5.0,8.0,96,0.00,,,0.73,Wunderground v.1.15,2013-01-17 01:44:00,
2013-01-16 20:49:00,35.7,34.7,29.82,WNW,295,6.0,11.0,96,0.00,,,0.73,Wunderground v.1.15,2013-01-17 01:49:00,
2013-01-16 20:54:00,35.8,34.5,29.82,West,276,11.0,11.0,95,0.00,,,0.73,Wunderground v.1.15,2013-01-17 01:54:00,
2013-01-16 20:59:00,35.8,34.5,29.81,WNW,290,2.0,11.0,95,0.00,,,0.73,Wunderground v.1.15,2013-01-17 01:59:00,
2013-01-16 21:04:00,35.7,34.4,29.81,NW,312,5.0,7.0,95,0.00,,,0.73,Wunderground v.1.15,2013-01-17 02:04:00,
2013-01-16 21:09:00,35.7,34.4,29.82,NW,309,3.0,9.0,95,0.00,,,0.73,Wunderground v.1.15,2013-01-17 02:09:00,
2013-01-16 21:14:00,35.7,34.4,29.81,NW,304,4.0,8.0,95,0.00,,,0.73,Wunderground v.1.15,2013-01-17 02:14:00,
2013-01-16 21:19:00,35.8,34.5,29.82,WNW,282,6.0,9.0,95,0.00,,,0.74,Wunderground v.1.15,2013-01-17 02:19:00,
2013-01-16 21:24:00,35.7,34.4,29.81,West,263,4.0,9.0,95,0.00,,,0.74,Wunderground v.1.15,2013-01-17 02:24:00,
2013-01-16 21:29:00,35.7,34.4,29.81,WSW,255,1.0,9.0,95,0.00,,,0.74,Wunderground v.1.15,2013-01-17 02:29:00,
2013-01-16 21:34:00,35.7,34.4,29.81,West,273,7.0,8.0,95,0.00,,,0.74,Wunderground v.1.15,2013-01-17 02:34:00,
2013-01-16 21:39:00,35.7,34.4,29.82,WNW,298,2.0,8.0,95,0.00,,,0.74,Wunderground v.1.15,2013-01-17 02:39:00,
2013-01-16 21:44:00,35.7,34.4,29.81,West,274,5.0,10.0,95,0.00,,,0.74,Wunderground v.1.15,2013-01-17 02:44:00,
2013-01-16 21:49:00,35.7,34.4,29.81,West,262,3.0,10.0,95,0.00,,,0.74,Wunderground v.1.15,2013-01-17 02:49:00,
2013-01-16 21:54:00,35.7,34.4,29.81,WNW,282,4.0,6.0,95,0.00,,,0.74,Wunderground v.1.15,2013-01-17 02:54:00,
2013-01-16 21:59:00,35.7,34.4,29.81,West,276,4.0,8.0,95,0.00,,,0.74,Wunderground v.1.15,2013-01-17 02:59:00,
2013-01-16 22:04:00,35.7,34.4,29.81,WNW,286,5.0,7.0,95,0.00,,,0.74,Wunderground v.1.15,2013-01-17 03:04:00,
2013-01-16 22:09:00,35.7,34.4,29.79,West,267,3.0,8.0,95,0.00,,,0.74,Wunderground v.1.15,2013-01-17 03:09:00,
2013-01-16 22:14:00,35.7,34.4,29.80,WNW,300,4.0,9.0,95,0.00,,,0.74,Wunderground v.1.15,2013-01-17 03:14:00,
2013-01-16 22:19:00,35.7,34.4,29.80,WNW,295,6.0,9.0,95,0.00,,,0.74,Wunderground v.1.15,2013-01-17 03:19:00,
2013-01-16 22:24:00,35.8,34.5,29.81,WNW,292,6.0,9.0,95,0.00,,,0.74,Wunderground v.1.15,2013-01-17 03:24:00,
2013-01-16 22:29:00,35.8,34.5,29.81,WNW,297,4.0,10.0,95,0.00,,,0.74,Wunderground v.1.15,2013-01-17 03:29:00,
2013-01-16 22:34:00,35.8,34.5,29.80,NW,307,2.0,7.0,95,0.00,,,0.74,Wunderground v.1.15,2013-01-17 03:34:00,
2013-01-16 22:39:00,35.9,34.6,29.81,West,276,5.0,9.0,95,0.00,,,0.74,Wunderground v.1.15,2013-01-17 03:39:00,
2013-01-16 22:44:00,35.9,34.6,29.82,West,269,9.0,11.0,95,0.00,,,0.74,Wunderground v.1.15,2013-01-17 03:44:00,
2013-01-16 22:49:00,35.9,34.3,29.81,WNW,290,6.0,11.0,94,0.00,,,0.74,Wunderground v.1.15,2013-01-17 03:49:00,
2013-01-16 22:54:00,35.9,34.3,29.82,NW,312,5.0,9.0,94,0.00,,,0.74,Wunderground v.1.15,2013-01-17 03:54:00,
2013-01-16 22:59:00,35.9,34.3,29.82,NW,309,4.0,11.0,94,0.00,,,0.74,Wunderground v.1.15,2013-01-17 03:59:00,
2013-01-16 23:04:00,36.0,34.4,29.83,WSW,252,4.0,10.0,94,0.00,,,0.74,Wunderground v.1.15,2013-01-17 04:04:00,
2013-01-16 23:09:00,36.0,34.4,29.82,WNW,282,4.0,10.0,94,0.00,,,0.74,Wunderground v.1.15,2013-01-17 04:09:00,
2013-01-16 23:14:00,36.0,34.4,29.82,West,276,8.0,8.0,94,0.00,,,0.74,Wunderground v.1.15,2013-01-17 04:14:00,
2013-01-16 23:19:00,36.0,34.4,29.82,West,276,5.0,10.0,94,0.00,,,0.74,Wunderground v.1.15,2013-01-17 04:19:00,
2013-01-16 23:24:00,36.1,34.5,29.83,WNW,283,7.0,10.0,94,0.00,,,0.74,Wunderground v.1.15,2013-01-17 04:24:00,
2013-01-16 23:29:00,36.1,34.5,29.82,NW,309,5.0,10.0,94,0.00,,,0.74,Wunderground v.1.15,2013-01-17 04:29:00,
2013-01-16 23:34:00,36.1,34.5,29.81,SW,228,2.0,6.0,94,0.00,,,0.74,Wunderground v.1.15,2013-01-17 04:34:00,
2013-01-16 23:39:00,36.1,34.5,29.82,West,280,5.0,8.0,94,0.00,,,0.74,Wunderground v.1.15,2013-01-17 04:39:00,
2013-01-16 23:44:00,36.1,34.5,29.83,West,277,6.0,8.0,94,0.00,,,0.74,Wunderground v.1.15,2013-01-17 04:44:00,
2013-01-16 23:49:00,36.2,34.6,29.82,West,273,2.0,11.0,94,0.00,,,0.74,Wunderground v.1.15,2013-01-17 04:49:00,
2013-01-16 23:54:00,36.2,34.6,29.83,WNW,298,4.0,8.0,94,0.00,,,0.74,Wunderground v.1.15,2013-01-17 04:54:00,
2013-01-16 23:59:00,36.2,34.6,29.82,WNW,290,7.0,9.0,94,0.00,,,0.74,Wunderground v.1.15,2013-01-17 04:59:00,